Time;durP1;ratioP1;P1;durP2;ratioP2;P2;SDS_P1;SDS_P2;PMS_P1;PMS_P2;Temp;Humidity;BMP_temperature;BMP_pressure;BME280_temperature;BME280_humidity;BME280_pressure;Samples;Min_cycle;Max_cycle;Signal;HPM_P1;HPM_P2
2024/03/31 00:01:10;;;;;;;8.20;2.20;;;;;;;-147.86;100.00;-17609.17;105861;1254;60450;-47
2024/03/31 00:03:38;;;;;;;13.70;2.60;;;;;;;-147.86;100.00;-17609.17;105865;1257;73661;-47
2024/03/31 00:06:05;;;;;;;9.50;2.80;;;;;;;-147.86;100.00;-17609.17;105888;1257;64658;-48
2024/03/31 00:08:32;;;;;;;13.70;3.30;;;;;;;-147.86;100.00;-17609.17;105839;1258;72557;-46
2024/03/31 00:11:00;;;;;;;6.20;2.30;;;;;;;-147.86;100.00;-17609.17;105818;1254;61719;-47
2024/03/31 00:13:29;;;;;;;12.90;2.40;;;;;;;-147.86;100.00;-17609.17;105927;1254;60418;-47
2024/03/31 00:15:57;;;;;;;8.50;2.60;;;;;;;-147.86;100.00;-17609.17;105830;1257;73848;-46
2024/03/31 00:18:23;;;;;;;16.20;2.90;;;;;;;-147.86;100.00;-17609.17;105879;1257;65609;-46
2024/03/31 00:20:54;;;;;;;11.10;2.50;;;;;;;-147.86;100.00;-17609.17;105897;1254;72999;-50
2024/03/31 00:23:22;;;;;;;10.00;2.60;;;;;;;-147.86;100.00;-17609.17;105833;1256;60823;-46
2024/03/31 00:25:58;;;;;;;15.90;3.10;;;;;;;-147.86;100.00;-17609.17;105862;1254;60524;-46
2024/03/31 00:28:25;;;;;;;13.20;2.70;;;;;;;-147.86;100.00;-17609.17;105855;1256;73654;-48
2024/03/31 00:30:56;;;;;;;10.20;3.00;;;;;;;-147.86;100.00;-17609.17;105853;1257;65327;-48
2024/03/31 00:33:23;;;;;;;14.60;3.20;;;;;;;-147.86;100.00;-17609.17;105851;1254;71490;-46
2024/03/31 00:35:54;;;;;;;16.00;2.70;;;;;;;-147.86;100.00;-17609.17;105700;1260;60536;-51
2024/03/31 00:38:22;;;;;;;17.80;3.50;;;;;;;-147.86;100.00;-17609.17;105868;1252;60328;-47
2024/03/31 00:40:50;;;;;;;16.20;3.40;;;;;;;-147.86;100.00;-17609.17;105915;1255;73818;-49
2024/03/31 00:43:19;;;;;;;12.80;2.90;;;;;;;-147.86;100.00;-17609.17;105938;1256;64714;-46
2024/03/31 00:45:46;;;;;;;11.00;3.30;;;;;;;-147.86;100.00;-17609.17;105688;1254;72718;-47
2024/03/31 00:48:13;;;;;;;15.30;4.10;;;;;;;-147.86;100.00;-17609.17;105850;1257;60681;-47
2024/03/31 00:50:42;;;;;;;12.90;3.40;;;;;;;-147.86;100.00;-17609.17;105681;1254;60427;-46
2024/03/31 00:53:09;;;;;;;13.90;3.30;;;;;;;-147.86;100.00;-17609.17;105716;1260;73769;-47
2024/03/31 00:55:36;;;;;;;18.80;3.60;;;;;;;-147.86;100.00;-17609.17;105888;1257;65443;-45
2024/03/31 00:58:03;;;;;;;14.90;3.30;;;;;;;-147.86;100.00;-17609.17;105893;1254;73051;-46
2024/03/31 01:00:30;;;;;;;11.20;2.90;;;;;;;-147.86;100.00;-17609.17;105887;1254;61884;-46
2024/03/31 01:02:57;;;;;;;19.80;4.00;;;;;;;-147.86;100.00;-17609.17;105648;1254;60529;-46
2024/03/31 01:05:24;;;;;;;10.70;3.30;;;;;;;-147.86;100.00;-17609.17;105812;1256;72716;-45
2024/03/31 01:07:51;;;;;;;14.50;3.70;;;;;;;-147.86;100.00;-17609.17;105819;1257;64712;-47
2024/03/31 01:10:18;;;;;;;16.90;4.10;;;;;;;-147.86;100.00;-17609.17;105795;1257;72540;-46
2024/03/31 01:12:45;;;;;;;15.40;3.30;;;;;;;-147.86;100.00;-17609.17;105647;1255;61886;-46
2024/03/31 01:15:17;;;;;;;15.70;3.50;;;;;;;-147.86;100.00;-17609.17;105698;1259;61203;-46
2024/03/31 01:17:44;;;;;;;17.00;3.70;;;;;;;-147.86;100.00;-17609.17;105902;1257;74497;-45
2024/03/31 01:20:11;;;;;;;13.60;3.30;;;;;;;-147.86;100.00;-17609.17;105879;1254;65447;-46
2024/03/31 01:22:38;;;;;;;28.90;4.50;;;;;;;-147.86;100.00;-17609.17;105838;1254;72423;-45
2024/03/31 01:25:05;;;;;;;18.40;3.00;;;;;;;-147.86;100.00;-17609.17;105753;1257;61814;-45
2024/03/31 01:27:32;;;;;;;17.60;3.50;;;;;;;-147.86;100.00;-17609.17;105725;1254;61221;-48
2024/03/31 01:29:59;;;;;;;18.10;3.10;;;;;;;-147.86;100.00;-17609.17;105567;1260;74592;-49
2024/03/31 01:32:26;;;;;;;19.50;3.30;;;;;;;-147.86;100.00;-17609.17;105401;1254;65448;-45
2024/03/31 01:34:53;;;;;;;15.20;4.10;;;;;;;-147.86;100.00;-17609.17;105677;1254;72652;-48
2024/03/31 01:37:20;;;;;;;15.50;3.50;;;;;;;-147.86;100.00;-17609.17;105848;1253;61158;-47
2024/03/31 01:39:46;;;;;;;14.30;3.20;;;;;;;-147.86;100.00;-17609.17;105860;1254;61214;-44
2024/03/31 01:42:13;;;;;;;11.60;3.20;;;;;;;-147.86;100.00;-17609.17;105828;1257;74660;-46
2024/03/31 01:44:40;;;;;;;13.90;3.20;;;;;;;-147.86;100.00;-17609.17;105878;1254;65270;-48
2024/03/31 01:47:06;;;;;;;12.90;3.20;;;;;;;-147.86;100.00;-17609.17;105922;1254;71219;-47
2024/03/31 01:49:33;;;;;;;12.70;3.20;;;;;;;-147.86;100.00;-17609.17;105846;1256;61161;-47
2024/03/31 01:52:00;;;;;;;12.40;3.10;;;;;;;-147.86;100.00;-17609.17;105828;1254;61234;-48
2024/03/31 01:54:27;;;;;;;11.20;3.10;;;;;;;-147.86;100.00;-17609.17;105825;1253;74552;-48
2024/03/31 01:56:54;;;;;;;12.80;3.20;;;;;;;-147.86;100.00;-17609.17;105781;1254;65466;-45
2024/03/31 01:59:20;;;;;;;15.70;3.50;;;;;;;-147.86;100.00;-17609.17;105818;1254;71715;-47
2024/03/31 02:01:48;;;;;;;14.30;3.60;;;;;;;-147.86;100.00;-17609.17;105822;1257;61234;-48
2024/03/31 02:04:14;;;;;;;15.70;3.00;;;;;;;-147.86;100.00;-17609.17;105671;1254;61314;-46
2024/03/31 02:06:42;;;;;;;18.80;3.30;;;;;;;-147.86;100.00;-17609.17;105904;1257;73463;-45
2024/03/31 02:09:09;;;;;;;13.80;3.10;;;;;;;-147.86;100.00;-17609.17;105719;1254;64746;-45
2024/03/31 02:11:36;;;;;;;13.20;3.20;;;;;;;-147.86;100.00;-17609.17;105867;1257;72418;-47
2024/03/31 02:14:03;;;;;;;13.60;3.20;;;;;;;-147.86;100.00;-17609.17;105705;1254;61214;-46
2024/03/31 02:16:31;;;;;;;16.60;4.10;;;;;;;-147.86;100.00;-17609.17;105833;1254;61199;-46
2024/03/31 02:18:57;;;;;;;11.50;3.00;;;;;;;-147.86;100.00;-17609.17;105816;1253;74505;-45
2024/03/31 02:21:24;;;;;;;14.40;2.90;;;;;;;-147.86;100.00;-17609.17;105835;1254;65885;-45
2024/03/31 02:23:51;;;;;;;18.00;3.20;;;;;;;-147.86;100.00;-17609.17;105684;1256;72582;-47
2024/03/31 02:26:18;;;;;;;14.40;2.90;;;;;;;-147.86;100.00;-17609.17;105664;1254;61908;-46
2024/03/31 02:28:45;;;;;;;18.10;3.40;;;;;;;-147.86;100.00;-17609.17;105866;1254;61321;-47
2024/03/31 02:31:12;;;;;;;20.90;3.90;;;;;;;-147.86;100.00;-17609.17;105670;1253;74691;-46
2024/03/31 02:33:39;;;;;;;15.70;3.70;;;;;;;-147.86;100.00;-17609.17;105859;1254;65357;-45
2024/03/31 02:36:07;;;;;;;16.30;3.20;;;;;;;-147.86;100.00;-17609.17;105776;1254;71515;-46
2024/03/31 02:38:33;;;;;;;23.70;3.80;;;;;;;-147.86;100.00;-17609.17;105657;1254;62003;-46
2024/03/31 02:41:02;;;;;;;13.80;3.20;;;;;;;-147.86;100.00;-17609.17;105837;1257;61232;-45
2024/03/31 02:43:29;;;;;;;16.20;3.60;;;;;;;-147.86;100.00;-17609.17;105628;1259;74583;-45
2024/03/31 02:45:56;;;;;;;10.40;3.30;;;;;;;-147.86;100.00;-17609.17;105674;1257;64090;-46
2024/03/31 02:48:23;;;;;;;24.90;3.70;;;;;;;-147.86;100.00;-17609.17;105642;1259;72593;-46
2024/03/31 02:50:49;;;;;;;9.00;3.10;;;;;;;-147.86;100.00;-17609.17;105636;1259;61326;-48
2024/03/31 02:53:16;;;;;;;24.60;3.90;;;;;;;-147.86;100.00;-17609.17;105805;1253;61324;-47
2024/03/31 02:55:44;;;;;;;15.40;4.00;;;;;;;-147.86;100.00;-17609.17;105790;1257;73492;-47
2024/03/31 02:58:11;;;;;;;18.90;3.30;;;;;;;-147.86;100.00;-17609.17;105808;1254;65438;-46
2024/03/31 03:00:38;;;;;;;17.70;3.60;;;;;;;-147.86;100.00;-17609.17;105827;1254;72677;-47
2024/03/31 03:03:05;;;;;;;15.00;3.40;;;;;;;-147.86;100.00;-17609.17;105665;1256;61203;-47
2024/03/31 03:05:32;;;;;;;16.20;3.10;;;;;;;-147.86;100.00;-17609.17;105907;1254;61339;-46
2024/03/31 03:08:00;;;;;;;14.20;3.30;;;;;;;-147.86;100.00;-17609.17;105846;1254;74428;-47
2024/03/31 03:10:27;;;;;;;15.60;3.00;;;;;;;-147.86;100.00;-17609.17;105848;1257;64553;-47
2024/03/31 03:12:53;;;;;;;17.60;3.00;;;;;;;-147.86;100.00;-17609.17;105659;1256;72636;-45
2024/03/31 03:15:21;;;;;;;13.50;3.10;;;;;;;-147.86;100.00;-17609.17;105731;1254;61219;-46
2024/03/31 03:17:47;;;;;;;22.60;4.00;;;;;;;-147.86;100.00;-17609.17;105856;1257;61158;-46
2024/03/31 03:20:14;;;;;;;11.90;2.60;;;;;;;-147.86;100.00;-17609.17;105824;1257;73540;-47
2024/03/31 03:22:41;;;;;;;23.90;3.60;;;;;;;-147.86;100.00;-17609.17;105809;1253;65501;-47
2024/03/31 03:25:08;;;;;;;21.30;3.00;;;;;;;-147.86;100.00;-17609.17;105626;1254;72604;-46
2024/03/31 03:27:35;;;;;;;12.90;2.70;;;;;;;-147.86;100.00;-17609.17;105700;1259;61300;-47
2024/03/31 03:30:03;;;;;;;12.00;3.10;;;;;;;-147.86;100.00;-17609.17;105656;1254;61273;-47
2024/03/31 03:32:30;;;;;;;10.30;2.10;;;;;;;-147.86;100.00;-17609.17;105728;1258;74458;-47
2024/03/31 03:34:57;;;;;;;19.50;2.50;;;;;;;-147.86;100.00;-17609.17;105657;1253;64566;-48
2024/03/31 03:37:26;;;;;;;14.90;2.20;;;;;;;-147.86;100.00;-17609.17;105664;1260;72459;-46
2024/03/31 03:39:53;;;;;;;8.60;2.60;;;;;;;-147.86;100.00;-17609.17;105783;1257;62281;-47
2024/03/31 03:42:21;;;;;;;11.00;2.30;;;;;;;-147.86;100.00;-17609.17;105838;1253;61310;-47
2024/03/31 03:44:48;;;;;;;7.90;2.70;;;;;;;-147.86;100.00;-17609.17;105639;1259;74804;-46
2024/03/31 03:47:15;;;;;;;7.40;2.00;;;;;;;-147.86;100.00;-17609.17;105721;1254;64615;-48
2024/03/31 03:49:42;;;;;;;13.20;2.10;;;;;;;-147.86;100.00;-17609.17;105779;1254;72584;-48
2024/03/31 03:52:10;;;;;;;8.00;1.90;;;;;;;-147.86;100.00;-17609.17;105796;1254;62097;-46
2024/03/31 03:54:37;;;;;;;12.00;2.30;;;;;;;-147.86;100.00;-17609.17;105798;1254;61217;-47
2024/03/31 03:57:04;;;;;;;6.80;2.50;;;;;;;-147.86;100.00;-17609.17;105697;1259;75579;-46
2024/03/31 03:59:31;;;;;;;13.80;2.70;;;;;;;-147.86;100.00;-17609.17;105670;1254;64709;-48
2024/03/31 04:01:58;;;;;;;11.30;2.50;;;;;;;-147.86;100.00;-17609.17;105853;1254;71547;-47
2024/03/31 04:04:25;;;;;;;13.30;2.40;;;;;;;-147.86;100.00;-17609.17;105770;1254;61859;-47
2024/03/31 04:06:51;;;;;;;11.80;2.20;;;;;;;-147.86;100.00;-17609.17;105766;1254;61928;-46
2024/03/31 04:09:18;;;;;;;9.80;1.80;;;;;;;-147.86;100.00;-17609.17;105699;1259;74618;-47
2024/03/31 04:11:45;;;;;;;4.10;1.70;;;;;;;-147.86;100.00;-17609.17;105876;1254;64486;-47
2024/03/31 04:14:12;;;;;;;9.30;1.90;;;;;;;-147.86;100.00;-17609.17;105806;1254;72594;-47
2024/03/31 04:16:40;;;;;;;8.80;2.40;;;;;;;-147.86;100.00;-17609.17;105841;1254;61791;-48
2024/03/31 04:19:07;;;;;;;9.90;2.00;;;;;;;-147.86;100.00;-17609.17;105630;1254;61391;-46
2024/03/31 04:21:34;;;;;;;9.90;2.30;;;;;;;-147.86;100.00;-17609.17;105859;1253;74474;-46
2024/03/31 04:24:02;;;;;;;8.00;1.60;;;;;;;-147.86;100.00;-17609.17;105792;1254;65312;-46
2024/03/31 04:26:30;;;;;;;7.90;2.30;;;;;;;-147.86;100.00;-17609.17;105627;1254;72534;-46
2024/03/31 04:28:57;;;;;;;6.30;1.90;;;;;;;-147.86;100.00;-17609.17;105736;1257;61253;-47
2024/03/31 04:31:24;;;;;;;6.30;2.00;;;;;;;-147.86;100.00;-17609.17;105766;1254;61203;-46
2024/03/31 04:33:51;;;;;;;7.00;1.80;;;;;;;-147.86;100.00;-17609.17;105887;1255;74705;-49
2024/03/31 04:36:18;;;;;;;6.00;1.70;;;;;;;-147.86;100.00;-17609.17;105684;1256;64633;-48
2024/03/31 04:38:45;;;;;;;10.80;1.70;;;;;;;-147.86;100.00;-17609.17;105720;1254;72501;-48
2024/03/31 04:41:11;;;;;;;5.90;1.40;;;;;;;-147.86;100.00;-17609.17;105712;1259;61353;-47
2024/03/31 04:43:39;;;;;;;8.10;1.30;;;;;;;-147.86;100.00;-17609.17;105673;1254;61246;-46
2024/03/31 04:46:07;;;;;;;19.30;1.80;;;;;;;-147.86;100.00;-17609.17;105821;1257;74461;-47
2024/03/31 04:48:36;;;;;;;7.80;1.50;;;;;;;-147.86;100.00;-17609.17;105661;1260;64644;-48
2024/03/31 04:51:04;;;;;;;5.40;1.30;;;;;;;-147.86;100.00;-17609.17;105700;1260;72413;-48
2024/03/31 04:53:32;;;;;;;7.70;1.50;;;;;;;-147.86;100.00;-17609.17;105666;1259;61247;-47
2024/03/31 04:56:01;;;;;;;8.30;2.20;;;;;;;-147.86;100.00;-17609.17;105751;1254;61346;-48
2024/03/31 04:58:28;;;;;;;7.00;1.50;;;;;;;-147.86;100.00;-17609.17;105701;1254;73473;-47
2024/03/31 05:00:55;;;;;;;11.10;1.60;;;;;;;-147.86;100.00;-17609.17;105742;1254;65394;-47
2024/03/31 05:03:23;;;;;;;5.00;1.70;;;;;;;-147.86;100.00;-17609.17;105699;1254;71600;-47
2024/03/31 05:05:50;;;;;;;7.30;1.60;;;;;;;-147.86;100.00;-17609.17;105684;1254;61161;-50
2024/03/31 05:08:16;;;;;;;5.20;1.50;;;;;;;-147.86;100.00;-17609.17;105817;1254;61318;-47
2024/03/31 05:10:56;;;;;;;7.80;2.00;;;;;;;-147.86;100.00;-17609.17;105832;1254;74578;-51
2024/03/31 05:13:28;;;;;;;8.40;1.70;;;;;;;-147.86;100.00;-17609.17;105901;1254;65056;-51
2024/03/31 05:16:01;;;;;;;4.30;1.10;;;;;;;-147.86;100.00;-17609.17;105848;1254;72563;-47
2024/03/31 05:18:28;;;;;;;3.30;1.10;;;;;;;-147.86;100.00;-17609.17;105796;1257;61368;-46
2024/03/31 05:20:57;;;;;;;7.40;1.40;;;;;;;-147.86;100.00;-17608.88;105661;1253;61311;-48
2024/03/31 05:23:23;;;;;;;5.60;1.20;;;;;;;-147.86;100.00;-16818.16;105803;1254;74550;-45
2024/03/31 05:25:51;;;;;;;7.80;1.50;;;;;;;-147.86;100.00;-14497.83;105705;1259;65357;-46
2024/03/31 05:28:18;;;;;;;7.10;1.20;;;;;;;-147.86;100.00;-13608.92;105815;1254;72608;-47
2024/03/31 05:30:45;;;;;;;7.40;1.00;;;;;;;-147.86;100.00;-11929.08;105704;1259;61225;-47
2024/03/31 05:33:13;;;;;;;2.90;1.20;;;;;;;-147.86;100.00;-8913.63;105641;1253;61413;-45
2024/03/31 05:36:07;;;;;;;7.10;1.50;;;;;;;-147.86;100.00;-7578.15;105732;1257;74357;-46
2024/03/31 05:38:34;;;;;;;2.60;0.90;;;;;;;-147.86;100.00;-6934.86;105766;1254;65485;-48
2024/03/31 05:41:08;;;;;;;2.10;1.10;;;;;;;-147.86;100.00;-3568.73;105866;1257;72395;-47
2024/03/31 05:43:35;;;;;;;5.50;1.30;;;;;;;-147.86;100.00;-596.30;105798;1256;61285;-48
2024/03/31 05:46:03;;;;;;;6.80;2.00;;;;;;;-147.86;99.37;2329.07;105912;1253;61835;-47
2024/03/31 05:48:30;;;;;;;6.80;1.50;;;;;;;-147.86;98.29;6497.65;105734;1254;74302;-47
2024/03/31 05:50:57;;;;;;;8.30;1.70;;;;;;;-147.86;96.84;11963.30;105800;1254;65311;-46
2024/03/31 05:53:24;;;;;;;10.40;1.30;;;;;;;-147.86;95.78;17486.43;105655;1254;72580;-46
2024/03/31 05:55:52;;;;;;;5.00;1.10;;;;;;;-147.86;94.99;21771.10;105836;1257;61301;-45
2024/03/31 05:58:19;;;;;;;5.60;1.30;;;;;;;-147.86;94.36;27081.10;105771;1254;61444;-46
2024/03/31 06:00:47;;;;;;;13.10;2.20;;;;;;;-147.86;93.81;31448.02;105699;1257;74555;-46
2024/03/31 06:03:14;;;;;;;4.10;1.30;;;;;;;-147.86;93.74;33566.50;105699;1259;65424;-46
2024/03/31 06:05:41;;;;;;;6.40;1.50;;;;;;;-147.86;90.77;36471.96;105793;1254;72493;-46
2024/03/31 06:08:08;;;;;;;64.00;3.40;;;;;;;-147.86;84.30;40661.91;105677;1258;61221;-46
2024/03/31 06:10:35;;;;;;;13.20;1.70;;;;;;;-147.86;80.97;44257.41;105696;1254;61263;-47
2024/03/31 06:13:05;;;;;;;5.60;1.10;;;;;;;-147.86;81.59;45920.39;105652;1258;74334;-48
2024/03/31 06:15:31;;;;;;;16.30;2.40;;;;;;;-147.86;77.52;46801.74;105712;1259;63969;-48
2024/03/31 06:17:58;;;;;;;8.30;1.60;;;;;;;-147.86;77.19;47399.09;105706;1254;72477;-50
2024/03/31 06:20:25;;;;;;;20.70;1.90;;;;;;;-147.86;73.95;47783.26;105725;1254;61225;-47
2024/03/31 06:22:53;;;;;;;9.20;1.20;;;;;;;-147.86;72.37;48164.73;105770;1254;61203;-48
2024/03/31 06:25:19;;;;;;;10.10;1.90;;;;;;;-147.86;73.00;48461.93;105767;1259;73718;-49
2024/03/31 06:27:46;;;;;;;6.20;1.60;;;;;;;-147.86;72.73;48625.82;105777;1259;65530;-49
2024/03/31 06:30:13;;;;;;;41.30;3.10;;;;;;;-147.86;72.08;48734.05;105676;1254;72447;-50
2024/03/31 06:32:40;;;;;;;2.90;1.10;;;;;;;-147.86;74.29;48823.06;105694;1259;61218;-46
2024/03/31 06:35:07;;;;;;;5.10;1.10;;;;;;;-147.86;72.43;48872.08;105725;1254;61212;-47
2024/03/31 06:37:34;;;;;;;6.40;1.40;;;;;;;-147.86;73.80;48941.49;105770;1253;74559;-46
2024/03/31 06:40:01;;;;;;;5.00;1.50;;;;;;;-147.86;72.47;48989.33;105757;1254;65307;-44
2024/03/31 06:42:30;;;;;;;50.70;3.30;;;;;;;-147.86;68.16;49015.61;105756;1253;72595;-47
2024/03/31 06:44:57;;;;;;;7.20;1.30;;;;;;;-147.86;67.74;49080.71;105661;1259;61187;-45
2024/03/31 06:47:27;;;;;;;89.20;4.10;;;;;;;-147.86;66.63;49119.92;105792;1253;61349;-46
2024/03/31 06:49:53;;;;;;;93.00;5.00;;;;;;;-147.86;68.65;49141.88;105773;1254;74617;-47
2024/03/31 06:52:20;;;;;;;3.20;1.30;;;;;;;-147.86;67.30;49174.04;105724;1259;65490;-47
2024/03/31 06:54:48;;;;;;;70.40;3.80;;;;;;;-147.86;69.16;49221.49;105829;1254;71457;-44
2024/03/31 06:57:15;;;;;;;66.40;4.30;;;;;;;-147.86;69.05;49248.16;105739;1256;61234;-46
2024/03/31 06:59:41;;;;;;;9.20;1.30;;;;;;;-147.86;67.74;49294.05;105693;1253;61272;-46
2024/03/31 07:02:08;;;;;;;5.30;1.10;;;;;;;-147.86;64.49;49321.11;105725;1253;73547;-46
2024/03/31 07:04:35;;;;;;;13.10;1.60;;;;;;;-147.86;61.68;49309.73;105757;1259;65454;-47
2024/03/31 07:07:02;;;;;;;6.20;1.10;;;;;;;-147.86;60.09;49329.73;105762;1254;72448;-46
2024/03/31 07:09:29;;;;;;;4.80;1.10;;;;;;;-147.86;61.22;49354.84;105779;1253;61314;-46
2024/03/31 07:11:56;;;;;;;6.50;1.20;;;;;;;-147.86;61.00;49394.45;105666;1254;61257;-45
2024/03/31 07:14:23;;;;;;;6.90;1.10;;;;;;;-147.86;58.69;49427.78;105731;1254;73367;-46
2024/03/31 07:16:50;;;;;;;4.30;1.40;;;;;;;-147.86;55.11;49427.00;105743;1256;65434;-46
2024/03/31 07:19:17;;;;;;;3.20;1.30;;;;;;;-147.86;55.73;49435.63;105676;1253;72623;-46
2024/03/31 07:21:44;;;;;;;8.00;1.70;;;;;;;-147.86;55.88;49457.20;105743;1257;61158;-47
2024/03/31 07:24:11;;;;;;;3.10;1.40;;;;;;;-147.86;54.95;49482.30;105684;1254;61228;-47
2024/03/31 07:26:39;;;;;;;9.30;1.40;;;;;;;-147.86;52.87;49449.75;105810;1254;74519;-47
2024/03/31 07:29:06;;;;;;;3.20;0.90;;;;;;;-147.86;53.18;49485.04;105801;1256;63707;-49
2024/03/31 07:31:33;;;;;;;3.60;1.00;;;;;;;-147.86;50.81;49475.24;105712;1254;72478;-48
2024/03/31 07:34:00;;;;;;;4.40;0.90;;;;;;;-147.86;50.33;49483.47;105658;1256;61251;-47
2024/03/31 07:36:28;;;;;;;4.60;1.00;;;;;;;-147.86;49.85;49490.54;105769;1254;61215;-48
2024/03/31 07:38:55;;;;;;;9.70;1.90;;;;;;;-147.86;51.12;49488.57;105767;1254;74620;-46
2024/03/31 07:41:22;;;;;;;6.00;1.10;;;;;;;-147.86;51.83;49514.07;105778;1254;64635;-47
2024/03/31 07:43:49;;;;;;;8.10;1.40;;;;;;;-147.86;53.22;49555.25;105780;1254;72968;-47
2024/03/31 07:46:16;;;;;;;5.80;1.20;;;;;;;-147.86;52.83;49604.27;105800;1253;61222;-45
2024/03/31 07:48:43;;;;;;;4.80;1.50;;;;;;;-147.86;52.76;49652.91;105761;1254;61817;-45
2024/03/31 07:51:10;;;;;;;3.90;1.00;;;;;;;-147.86;49.11;49666.24;105726;1254;74571;-48
2024/03/31 07:53:37;;;;;;;4.20;1.20;;;;;;;-147.86;46.72;49630.16;105751;1253;64530;-46
2024/03/31 07:56:04;;;;;;;8.40;1.20;;;;;;;-147.86;46.43;49610.95;105699;1254;72624;-49
2024/03/31 07:58:31;;;;;;;4.30;1.80;;;;;;;-147.86;48.29;49603.09;105800;1254;61313;-47
2024/03/31 08:01:00;;;;;;;6.70;1.00;;;;;;;-147.86;49.67;49638.00;105765;1254;61205;-48
2024/03/31 08:03:28;;;;;;;5.00;1.40;;;;;;;-147.86;48.76;49672.91;105836;1257;74673;-47
2024/03/31 08:05:55;;;;;;;4.90;1.20;;;;;;;-147.86;48.21;49689.77;105748;1257;65607;-47
2024/03/31 08:08:22;;;;;;;4.10;0.80;;;;;;;-147.86;48.30;49705.07;105781;1254;71497;-46
2024/03/31 08:10:49;;;;;;;8.20;1.80;;;;;;;-147.86;47.28;49712.52;105791;1253;61218;-47
2024/03/31 08:13:16;;;;;;;6.40;1.30;;;;;;;-147.86;47.99;49735.27;105796;1253;61262;-45
2024/03/31 08:15:43;;;;;;;8.00;1.80;;;;;;;-147.86;48.02;49792.93;105770;1257;74587;-48
2024/03/31 08:18:11;;;;;;;6.10;1.40;;;;;;;-147.86;47.09;49818.43;105824;1252;65575;-51
2024/03/31 08:20:39;;;;;;;8.60;2.10;;;;;;;-147.86;46.27;49795.68;105774;1253;72467;-48
2024/03/31 08:23:06;;;;;;;5.90;1.70;;;;;;;-147.86;47.63;49829.80;105773;1253;61154;-48
2024/03/31 08:25:37;;;;;;;11.40;1.60;;;;;;;-147.86;46.09;49857.65;105798;1253;61350;-49
2024/03/31 08:28:04;;;;;;;3.30;1.40;;;;;;;-147.86;43.96;49808.62;105778;1254;73506;-47
2024/03/31 08:30:32;;;;;;;5.50;1.60;;;;;;;-147.86;44.27;49778.03;105845;1257;65389;-49
2024/03/31 08:32:59;;;;;;;10.40;1.90;;;;;;;-147.86;44.79;49757.24;105662;1259;72676;-50
2024/03/31 08:35:26;;;;;;;7.30;1.60;;;;;;;-147.86;44.31;49750.57;105762;1254;61632;-48
2024/03/31 08:37:53;;;;;;;7.20;1.50;;;;;;;-147.86;44.38;49769.01;105834;1253;61247;-50
2024/03/31 08:40:23;;;;;;;9.40;1.80;;;;;;;-147.86;45.57;49769.00;105846;1258;75966;-48
2024/03/31 08:43:03;;;;;;;10.40;1.70;;;;;;;-147.86;45.57;49812.93;105764;1257;64335;-49
2024/03/31 08:45:30;;;;;;;2.90;1.50;;;;;;;-147.86;44.84;49823.52;105785;1254;72480;-52
2024/03/31 08:47:59;;;;;;;2.60;1.50;;;;;;;-147.86;43.44;49808.23;105768;1254;61139;-52
2024/03/31 08:50:26;;;;;;;7.70;2.10;;;;;;;-147.86;43.72;49854.51;105769;1254;61685;-51
2024/03/31 08:52:53;;;;;;;3.90;1.80;;;;;;;-147.86;40.87;49823.52;105783;1254;74572;-48
2024/03/31 08:55:20;;;;;;;4.70;2.50;;;;;;;-147.86;40.84;49809.80;105802;1257;65488;-48
2024/03/31 08:57:47;;;;;;;7.60;1.90;;;;;;;-147.86;39.66;49772.54;105707;1254;73800;-50
2024/03/31 09:00:15;;;;;;;9.00;1.90;;;;;;;-147.86;39.30;49775.68;105816;1257;61346;-47
2024/03/31 09:02:42;;;;;;;6.80;1.90;;;;;;;-147.86;37.64;49722.73;105808;1254;61909;-47
2024/03/31 09:05:09;;;;;;;7.80;1.80;;;;;;;-147.86;37.49;49745.08;105791;1254;75019;-49
2024/03/31 09:07:36;;;;;;;6.80;2.20;;;;;;;-147.86;36.53;49751.75;105682;1254;66881;-49
2024/03/31 09:10:07;;;;;;;6.80;2.00;;;;;;;-147.86;36.67;49749.00;105753;1254;73183;-50
2024/03/31 09:12:34;;;;;;;5.60;2.20;;;;;;;-147.86;35.74;49757.63;105795;1257;61574;-51
2024/03/31 09:15:02;;;;;;;4.50;1.80;;;;;;;-147.86;35.96;49750.57;105696;1254;61702;-51
2024/03/31 09:17:29;;;;;;;5.50;1.00;;;;;;;-147.86;32.80;49667.42;105534;1256;351908;-48
2024/03/31 09:21:27;;;;;;;7.20;1.30;;;;;;;-147.86;31.75;49027.14;102464;1293;603395;-50
2024/03/31 09:23:55;;;;;;;5.90;1.10;;;;;;;-147.86;31.54;49555.64;104841;1269;60448;-48
2024/03/31 09:26:22;;;;;;;9.50;1.10;;;;;;;-147.86;31.38;49571.72;104782;1267;61565;-47
2024/03/31 09:28:49;;;;;;;1.80;1.00;;;;;;;-147.86;31.75;49601.13;104677;1269;74430;-47
2024/03/31 09:31:20;;;;;;;5.40;1.40;;;;;;;-147.86;31.63;49635.65;104816;1272;66606;-51
2024/03/31 09:33:49;;;;;;;3.50;0.90;;;;;;;-147.86;29.99;49563.88;104653;1270;241037;-48
2024/03/31 09:36:16;;;;;;;4.20;0.90;;;;;;;-147.86;28.86;49460.34;105036;1266;60269;-46
2024/03/31 09:38:43;;;;;;;2.20;1.10;;;;;;;-147.86;27.92;49350.52;105050;1267;61513;-50
2024/03/31 09:41:10;;;;;;;4.20;1.00;;;;;;;-147.86;28.10;49303.46;105001;1266;73461;-49
2024/03/31 09:43:38;;;;;;;3.50;0.80;;;;;;;-147.86;27.55;49259.54;104852;1272;65446;-48
2024/03/31 09:46:07;;;;;;;2.40;0.70;;;;;;;-147.86;26.65;49128.95;104870;1265;72473;-52
2024/03/31 09:48:35;;;;;;;3.60;0.90;;;;;;;-147.86;26.03;48988.94;105047;1266;60577;-48
2024/03/31 09:51:10;;;;;;;3.60;0.60;;;;;;;-147.86;25.85;48883.06;105089;1267;61605;-46
2024/03/31 09:53:37;;;;;;;;;;;;;;;-147.86;26.16;48864.63;104890;1267;75068;-49
2024/03/31 09:56:07;;;;;;;4.70;1.00;;;;;;;-147.86;26.01;48859.53;105085;1269;64638;-49
2024/03/31 09:58:37;;;;;;;4.10;0.70;;;;;;;-147.86;27.01;48928.95;105068;1269;74072;-50
2024/03/31 10:01:05;;;;;;;1.70;0.70;;;;;;;-147.86;27.32;49032.86;105007;1269;60470;-50
2024/03/31 10:03:36;;;;;;;8.10;1.30;;;;;;;-147.86;26.34;48988.55;104827;1271;60409;-49
2024/03/31 10:06:03;;;;;;;4.80;1.20;;;;;;;-147.86;26.34;49040.71;104912;1267;72850;-52
2024/03/31 10:08:31;;;;;;;3.30;0.80;;;;;;;-147.86;25.78;49016.78;105132;1269;63502;-52
2024/03/31 10:10:58;;;;;;;3.10;0.90;;;;;;;-147.86;24.53;48845.02;104862;1263;73055;-50
2024/03/31 10:13:26;;;;;;;3.40;0.80;;;;;;;-147.86;24.21;48626.22;105153;1267;61577;-49
2024/03/31 10:15:57;;;;;;;1.60;0.90;;;;;;;-147.86;24.32;48576.42;105196;1263;61671;-49
2024/03/31 10:18:24;;;;;;;4.00;1.20;;;;;;;-147.86;24.89;48584.26;105501;1260;74986;-49
2024/03/31 10:20:52;;;;;;;2.40;0.70;;;;;;;-147.86;24.70;48541.52;105508;1262;66335;-53
2024/03/31 10:23:19;;;;;;;9.40;1.20;;;;;;;-147.86;23.96;48421.15;105590;1260;74063;-51
2024/03/31 10:25:46;;;;;;;44.90;3.10;;;;;;;-147.86;24.34;48428.99;105479;1262;60717;-47
2024/03/31 10:28:14;;;;;;;9.40;0.80;;;;;;;-147.86;23.78;48379.20;105488;1258;61496;-49
2024/03/31 10:30:41;;;;;;;115.70;7.10;;;;;;;-147.86;24.02;48366.64;105501;1260;75298;-49
2024/03/31 10:33:09;;;;;;;37.40;2.90;;;;;;;-147.86;24.01;48360.37;105493;1260;63937;-50
2024/03/31 10:35:37;;;;;;;3.50;0.80;;;;;;;-147.86;23.86;48320.77;105494;1260;74044;-48
2024/03/31 10:38:04;;;;;;;97.70;5.40;;;;;;;-147.86;23.93;48276.07;105509;1259;61669;-50
2024/03/31 10:40:35;;;;;;;97.00;4.70;;;;;;;-147.86;24.24;48262.74;105483;1261;61432;-46
2024/03/31 10:43:03;;;;;;;8.10;0.80;;;;;;;-147.86;23.67;48191.78;105211;1262;74008;-47
2024/03/31 10:45:30;;;;;;;8.20;1.20;;;;;;;-147.86;24.47;48223.54;105494;1262;66056;-48
2024/03/31 10:47:57;;;;;;;18.50;1.60;;;;;;;-147.86;24.46;48246.27;105500;1260;74610;-49
2024/03/31 10:50:24;;;;;;;52.90;2.80;;;;;;;-147.86;24.50;48256.87;105315;1264;60555;-48
2024/03/31 10:52:51;;;;;;;4.50;1.10;;;;;;;-147.86;24.19;48232.16;105526;1258;60376;-49
2024/03/31 10:55:19;;;;;;;206.90;11.70;;;;;;;-147.86;24.81;48285.88;105533;1258;73917;-50
2024/03/31 10:57:55;;;;;;;41.60;2.90;;;;;;;-147.86;25.12;48368.61;105502;1262;65245;-48
2024/03/31 11:00:22;;;;;;;2.10;0.80;;;;;;;-147.86;25.00;48362.73;105536;1260;74057;-50